Time;durP1;ratioP1;P1;durP2;ratioP2;P2;SDS_P1;SDS_P2;PMS_P1;PMS_P2;Temp;Humidity;BMP_temperature;BMP_pressure;BME280_temperature;BME280_humidity;BME280_pressure;Samples;Min_cycle;Max_cycle;Signal;HPM_P1;HPM_P2
2021/01/03 00:01:46;;;;;;;8.85;6.20;;;;;;;18.43;50.23;101604.00;5078228;28;20116;-73
2021/01/03 00:04:11;;;;;;;9.23;7.18;;;;;;;18.39;50.53;101591.75;5090780;28;20024;-72
2021/01/03 00:06:37;;;;;;;9.85;6.57;;;;;;;18.42;50.50;101602.25;5072703;28;20360;-72
2021/01/03 00:09:04;;;;;;;10.40;6.40;;;;;;;18.39;50.50;101594.34;5107013;28;20131;-73
2021/01/03 00:11:29;;;;;;;9.73;7.20;;;;;;;18.34;50.40;101596.06;5093880;28;20027;-73
2021/01/03 00:13:55;;;;;;;8.95;6.15;;;;;;;18.41;50.43;101605.72;5078672;28;20037;-73
2021/01/03 00:16:20;;;;;;;8.75;6.15;;;;;;;18.39;50.58;101610.94;5068029;28;20052;-72
2021/01/03 00:18:45;;;;;;;9.70;6.03;;;;;;;18.37;50.40;101610.06;5094425;28;20059;-72
2021/01/03 00:21:11;;;;;;;8.05;5.15;;;;;;;18.36;50.42;101599.56;5071490;28;20118;-72
2021/01/03 00:23:37;;;;;;;9.73;6.78;;;;;;;18.34;50.49;101603.91;5094423;28;20140;-73
2021/01/03 00:26:03;;;;;;;8.50;6.32;;;;;;;18.32;49.95;101601.28;5079055;28;20023;-72
2021/01/03 00:28:28;;;;;;;8.82;5.80;;;;;;;18.32;50.30;101595.16;5088835;28;20020;-72
2021/01/03 00:30:54;;;;;;;8.88;6.88;;;;;;;18.31;50.42;101598.63;5078064;28;20038;-73
2021/01/03 00:33:19;;;;;;;8.32;6.25;;;;;;;18.37;50.38;101609.19;5076809;28;20031;-72
2021/01/03 00:35:44;;;;;;;8.45;5.60;;;;;;;18.36;50.27;101610.03;5075772;28;20032;-73
2021/01/03 00:38:11;;;;;;;7.70;5.60;;;;;;;18.35;50.16;101616.13;5092148;28;20435;-73
2021/01/03 00:40:37;;;;;;;7.70;5.35;;;;;;;18.35;50.19;101616.13;5092242;28;20036;-72
2021/01/03 00:43:06;;;;;;;8.50;5.78;;;;;;;18.33;50.13;101604.78;5094818;28;20031;-72
2021/01/03 00:45:31;;;;;;;8.70;6.55;;;;;;;18.30;50.16;101603.03;5089147;28;20020;-73
2021/01/03 00:47:58;;;;;;;8.00;5.28;;;;;;;18.30;50.21;101610.00;5111731;28;22254;-73
2021/01/03 00:50:25;;;;;;;6.57;5.20;;;;;;;18.33;50.23;101608.25;5091922;28;22039;-72
2021/01/03 00:52:50;;;;;;;8.35;5.93;;;;;;;18.32;50.36;101608.25;5085191;28;20034;-72
2021/01/03 00:55:16;;;;;;;9.57;6.18;;;;;;;18.28;50.26;101606.50;5088330;28;20036;-72
2021/01/03 00:57:42;;;;;;;7.60;5.72;;;;;;;18.30;50.46;101610.00;5101498;28;20119;-73
2021/01/03 01:00:17;;;;;;;8.13;5.82;;;;;;;18.28;50.21;101609.13;5062635;28;20036;-72
2021/01/03 01:02:42;;;;;;;6.68;5.18;;;;;;;18.29;50.27;101613.50;5106509;28;20039;-73
2021/01/03 01:05:08;;;;;;;5.43;4.78;;;;;;;18.28;50.03;101612.59;5071219;28;20039;-73
2021/01/03 01:07:33;;;;;;;7.53;5.53;;;;;;;18.26;50.39;101619.56;5090404;28;20026;-72
2021/01/03 01:09:59;;;;;;;7.85;5.72;;;;;;;18.22;50.08;101609.94;5087195;28;20024;-72
2021/01/03 01:12:25;;;;;;;5.75;4.70;;;;;;;18.27;50.27;101617.84;5067847;28;20115;-72
2021/01/03 01:14:50;;;;;;;7.55;5.35;;;;;;;18.18;50.39;101609.00;5088366;28;20039;-73
2021/01/03 01:17:15;;;;;;;8.98;5.75;;;;;;;18.18;50.04;101602.91;5076592;28;20028;-72
2021/01/03 01:19:41;;;;;;;6.57;5.05;;;;;;;18.22;50.13;101612.53;5057206;28;20466;-72
2021/01/03 01:22:07;;;;;;;7.75;5.63;;;;;;;18.25;50.14;101622.16;5110931;28;20038;-72
2021/01/03 01:24:35;;;;;;;5.40;4.47;;;;;;;18.16;50.13;101610.78;5090604;28;20369;-72
2021/01/03 01:27:00;;;;;;;7.47;4.95;;;;;;;18.16;50.04;101608.16;5092600;28;20070;-73
2021/01/03 01:29:26;;;;;;;6.80;5.25;;;;;;;18.20;50.10;101619.50;5086964;28;20126;-73
2021/01/03 01:31:51;;;;;;;6.50;4.78;;;;;;;18.17;50.23;101612.53;5085776;28;20024;-73
2021/01/03 01:34:16;;;;;;;7.28;5.50;;;;;;;18.18;50.17;101618.59;5065650;28;20031;-72
2021/01/03 01:36:43;;;;;;;5.85;4.32;;;;;;;18.18;50.20;101613.38;5102918;28;20485;-72
2021/01/03 01:39:09;;;;;;;6.65;5.40;;;;;;;18.21;50.11;101618.63;5088808;28;20052;-72
2021/01/03 01:41:34;;;;;;;6.22;4.70;;;;;;;18.18;50.07;101614.25;5103437;28;20447;-73
2021/01/03 01:44:00;;;;;;;7.30;5.95;;;;;;;18.13;49.76;101608.13;5072006;28;20475;-72
2021/01/03 01:46:43;;;;;;;6.70;5.05;;;;;;;18.18;50.30;101616.88;5062799;28;20070;-73
2021/01/03 01:49:12;;;;;;;7.25;5.15;;;;;;;18.15;49.98;101611.63;5087925;28;20106;-73
2021/01/03 01:51:42;;;;;;;7.30;4.85;;;;;;;18.12;50.20;101608.97;5110066;28;20034;-73
2021/01/03 01:54:07;;;;;;;7.15;4.80;;;;;;;18.18;50.31;101613.38;5088894;28;20024;-73
2021/01/03 01:57:00;;;;;;;5.88;4.93;;;;;;;18.14;50.34;101614.22;5102874;28;20073;-73
2021/01/03 01:59:45;;;;;;;7.15;4.95;;;;;;;18.15;49.93;101624.72;5104362;28;20020;-73
2021/01/03 02:02:22;;;;;;;6.95;5.25;;;;;;;18.14;50.09;101622.97;5082885;28;20027;-72
2021/01/03 02:05:10;;;;;;;8.27;5.45;;;;;;;18.13;50.44;101617.72;5089070;28;20023;-72
2021/01/03 02:07:45;;;;;;;6.25;4.55;;;;;;;18.08;50.08;101612.41;5093173;28;20030;-72
2021/01/03 02:10:28;;;;;;;6.93;4.80;;;;;;;18.08;50.00;101628.13;5088469;28;20055;-73
2021/01/03 02:13:24;;;;;;;7.85;5.25;;;;;;;18.13;50.06;101620.31;5086258;28;20114;-72
2021/01/03 02:15:51;;;;;;;5.03;4.50;;;;;;;18.13;49.94;101621.22;5084123;28;20122;-73
2021/01/03 02:18:18;;;;;;;6.30;4.97;;;;;;;18.08;49.75;101620.28;5112085;28;20024;-73
2021/01/03 02:20:53;;;;;;;6.20;4.93;;;;;;;18.11;50.17;101625.53;5107355;28;20069;-73
2021/01/03 02:23:32;;;;;;;7.03;4.60;;;;;;;18.11;49.75;101627.28;5091886;28;20052;-73
2021/01/03 02:26:00;;;;;;;6.90;4.72;;;;;;;18.08;49.98;101630.75;5115126;28;20023;-73
2021/01/03 02:28:28;;;;;;;6.32;4.50;;;;;;;18.07;49.97;101623.75;5095251;28;20016;-74
2021/01/03 02:30:54;;;;;;;7.13;5.53;;;;;;;18.07;50.25;101629.00;5107413;28;20024;-73
2021/01/03 02:33:28;;;;;;;7.13;4.60;;;;;;;18.06;50.20;101624.63;5096102;28;22196;-73
2021/01/03 02:36:11;;;;;;;5.93;4.47;;;;;;;18.09;49.89;101634.25;5090243;28;20041;-73
2021/01/03 02:38:42;;;;;;;5.72;4.22;;;;;;;18.09;49.85;101637.72;5105060;28;20046;-73
2021/01/03 02:41:07;;;;;;;6.00;4.43;;;;;;;18.09;49.85;101634.25;5089190;28;20036;-73
2021/01/03 02:43:32;;;;;;;5.95;4.82;;;;;;;18.08;49.70;101638.59;5094497;28;20077;-73
2021/01/03 02:45:58;;;;;;;5.47;4.53;;;;;;;18.05;49.88;101633.31;5096934;28;20031;-73
2021/01/03 02:48:24;;;;;;;4.93;4.18;;;;;;;18.08;49.84;101637.72;5070993;28;20024;-73
2021/01/03 02:50:50;;;;;;;6.68;4.72;;;;;;;18.01;49.99;101628.06;5086661;28;20036;-73
2021/01/03 02:53:17;;;;;;;7.25;4.88;;;;;;;18.02;49.74;101630.69;5091373;28;20023;-78
2021/01/03 02:55:42;;;;;;;5.78;4.07;;;;;;;18.07;49.98;101635.97;5108676;28;20106;-79
2021/01/03 02:58:08;;;;;;;5.38;4.32;;;;;;;18.05;49.91;101633.31;5074939;28;20073;-79
2021/01/03 03:00:36;;;;;;;7.25;4.70;;;;;;;18.05;49.55;101635.94;5079426;28;20036;-79
2021/01/03 03:03:04;;;;;;;7.20;4.63;;;;;;;18.02;49.89;101627.22;5107727;28;20062;-78
2021/01/03 03:05:29;;;;;;;5.50;3.78;;;;;;;17.96;49.64;101614.94;5114827;28;20070;-79
2021/01/03 03:07:55;;;;;;;5.82;4.65;;;;;;;18.01;49.66;101625.44;5097851;28;20044;-79
2021/01/03 03:10:21;;;;;;;6.55;4.25;;;;;;;18.00;49.76;101624.56;5082686;28;20039;-79
2021/01/03 03:12:59;;;;;;;6.53;4.82;;;;;;;18.03;49.21;101623.72;5090608;28;20498;-80
2021/01/03 03:15:27;;;;;;;6.40;4.88;;;;;;;18.03;49.69;101627.22;5086911;28;20032;-79
2021/01/03 03:17:52;;;;;;;6.80;4.30;;;;;;;18.03;49.69;101623.72;5113268;28;20062;-72
2021/01/03 03:20:20;;;;;;;5.68;4.10;;;;;;;18.03;49.92;101626.34;5080528;28;20122;-72
2021/01/03 03:22:46;;;;;;;6.47;4.93;;;;;;;18.00;49.77;101621.97;5112434;28;20067;-72
2021/01/03 03:25:14;;;;;;;4.53;4.05;;;;;;;18.00;49.68;101615.84;5109863;28;20024;-72
2021/01/03 03:27:39;;;;;;;5.90;4.25;;;;;;;17.99;49.82;101614.09;5092701;28;20543;-72
2021/01/03 03:30:06;;;;;;;6.50;5.07;;;;;;;17.99;49.52;101620.19;5080696;28;20031;-72
2021/01/03 03:32:32;;;;;;;5.80;4.30;;;;;;;17.92;49.78;101605.28;5111177;28;20093;-72
2021/01/03 03:34:57;;;;;;;5.72;4.32;;;;;;;17.98;49.62;101618.44;5092120;28;20561;-72
2021/01/03 03:37:23;;;;;;;5.57;4.45;;;;;;;18.00;49.58;101624.56;5078132;28;20147;-72
2021/01/03 03:39:48;;;;;;;6.03;3.92;;;;;;;17.84;49.67;101597.38;5109463;28;20079;-72
2021/01/03 03:42:14;;;;;;;6.22;4.57;;;;;;;17.98;49.75;101614.94;5080206;28;20027;-72
2021/01/03 03:44:39;;;;;;;5.65;4.35;;;;;;;17.96;49.46;101614.94;5092658;28;20035;-72
2021/01/03 03:47:04;;;;;;;5.20;4.47;;;;;;;17.97;49.69;101616.69;5076417;28;20501;-73
2021/01/03 03:49:31;;;;;;;5.72;4.40;;;;;;;17.97;49.57;101618.44;5094812;28;20024;-72
2021/01/03 03:51:59;;;;;;;7.07;5.07;;;;;;;17.96;49.59;101621.91;5109630;28;20067;-72
2021/01/03 03:54:25;;;;;;;5.90;4.22;;;;;;;17.92;49.60;101610.53;5109646;28;20373;-72
2021/01/03 03:56:55;;;;;;;5.38;4.25;;;;;;;17.93;49.66;101614.00;5114261;28;20031;-72
2021/01/03 03:59:22;;;;;;;6.32;4.28;;;;;;;17.97;49.24;101623.66;5095527;28;20116;-72
2021/01/03 04:01:48;;;;;;;5.75;3.97;;;;;;;17.97;49.65;101626.28;5093145;28;20031;-73
2021/01/03 04:04:14;;;;;;;6.43;4.63;;;;;;;17.92;49.71;101623.59;5087204;28;20023;-72
2021/01/03 04:06:40;;;;;;;5.30;3.80;;;;;;;17.94;49.55;101626.25;5076474;28;20488;-72
2021/01/03 04:09:07;;;;;;;5.10;3.85;;;;;;;17.94;49.61;101621.00;5069383;28;20023;-73
2021/01/03 04:11:32;;;;;;;5.22;3.70;;;;;;;17.94;49.72;101621.00;5106748;28;20031;-72
2021/01/03 04:13:58;;;;;;;5.25;4.47;;;;;;;17.92;49.59;101618.38;5107437;28;20521;-72
2021/01/03 04:16:24;;;;;;;5.18;3.92;;;;;;;17.90;49.54;101617.50;5085836;28;20023;-72
2021/01/03 04:18:49;;;;;;;6.20;4.68;;;;;;;17.91;49.55;101627.13;5084102;28;20031;-72
2021/01/03 04:21:15;;;;;;;6.15;3.55;;;;;;;17.90;49.41;101624.47;5104063;28;20114;-72
2021/01/03 04:23:41;;;;;;;5.55;4.03;;;;;;;17.92;49.50;101623.59;5094099;28;20028;-72
2021/01/03 04:26:08;;;;;;;5.63;4.22;;;;;;;17.91;49.48;101621.00;5106455;28;20036;-72
2021/01/03 04:28:33;;;;;;;5.35;4.38;;;;;;;17.79;49.49;101603.41;5108871;28;20138;-72
2021/01/03 04:30:58;;;;;;;6.10;4.30;;;;;;;17.91;49.36;101623.63;5086075;28;20482;-72
2021/01/03 04:33:24;;;;;;;5.45;4.18;;;;;;;17.88;49.68;101623.56;5093161;28;20519;-73
2021/01/03 04:35:50;;;;;;;5.88;3.85;;;;;;;17.89;49.44;101628.81;5108848;28;20494;-72
2021/01/03 04:38:16;;;;;;;5.47;4.30;;;;;;;17.89;49.49;101628.81;5106075;28;20121;-72
2021/01/03 04:40:42;;;;;;;4.50;3.95;;;;;;;17.80;49.25;101611.28;5093442;28;20059;-72
2021/01/03 04:43:15;;;;;;;4.45;3.92;;;;;;;17.89;49.23;101623.59;5090146;28;20070;-72
2021/01/03 04:45:42;;;;;;;5.38;4.78;;;;;;;17.87;49.58;101622.69;5109377;28;20027;-72
2021/01/03 04:48:30;;;;;;;6.32;3.95;;;;;;;17.85;49.44;101633.16;5110678;28;20103;-73
2021/01/03 04:51:06;;;;;;;6.43;4.78;;;;;;;17.83;49.58;101632.25;5081435;28;20056;-72
2021/01/03 04:53:35;;;;;;;4.82;3.80;;;;;;;17.83;49.46;101627.00;5097956;28;20074;-79
2021/01/03 04:56:21;;;;;;;6.80;4.05;;;;;;;17.81;49.40;101628.72;5105091;28;20032;-80
2021/01/03 04:59:20;;;;;;;5.55;4.57;;;;;;;17.86;49.44;101634.03;5094187;28;20065;-78
2021/01/03 05:02:08;;;;;;;5.57;4.43;;;;;;;17.85;49.56;101624.41;5101744;28;20031;-80
2021/01/03 05:05:19;;;;;;;6.35;4.03;;;;;;;17.84;49.50;101636.63;5059583;28;20088;-79
2021/01/03 05:08:00;;;;;;;4.80;3.65;;;;;;;17.83;49.42;101640.09;5071994;28;20037;-79
2021/01/03 05:10:27;;;;;;;5.82;4.07;;;;;;;17.80;49.35;101633.94;5113246;28;20016;-80
2021/01/03 05:12:52;;;;;;;5.50;3.88;;;;;;;17.81;49.18;101633.97;5109067;28;20034;-79
2021/01/03 05:15:40;;;;;;;5.50;4.55;;;;;;;17.81;49.60;101643.56;5111095;28;20466;-79
2021/01/03 05:18:06;;;;;;;5.47;4.32;;;;;;;17.77;49.49;101631.31;5106781;28;20060;-79
2021/01/03 05:20:32;;;;;;;6.97;4.45;;;;;;;17.78;49.45;101635.69;5088865;28;20026;-80
2021/01/03 05:23:17;;;;;;;6.00;4.45;;;;;;;17.78;49.41;101638.31;5077510;28;20152;-79
2021/01/03 05:25:44;;;;;;;5.18;3.85;;;;;;;17.77;49.39;101631.31;5086887;28;20016;-79
2021/01/03 05:28:21;;;;;;;5.70;4.25;;;;;;;17.78;49.49;101638.31;5111729;28;20059;-80
2021/01/03 05:30:47;;;;;;;5.63;4.68;;;;;;;17.73;49.60;101634.75;5092210;28;20030;-79
2021/01/03 05:33:21;;;;;;;5.13;3.95;;;;;;;17.76;49.50;101642.66;5085057;28;20028;-79
2021/01/03 05:35:47;;;;;;;5.55;3.80;;;;;;;17.73;49.45;101634.75;5110878;28;20027;-79
2021/01/03 05:38:34;;;;;;;5.82;3.92;;;;;;;17.75;49.67;101641.75;5102158;28;20092;-79
2021/01/03 05:41:44;;;;;;;5.00;4.03;;;;;;;17.75;49.74;101651.34;5096614;28;20035;-79
2021/01/03 05:44:21;;;;;;;4.75;3.92;;;;;;;17.75;49.38;101646.13;5088837;28;20124;-80
2021/01/03 05:46:51;;;;;;;4.50;3.50;;;;;;;17.73;49.59;101647.84;5094290;28;20035;-79
2021/01/03 05:49:25;;;;;;;4.90;3.95;;;;;;;17.73;49.55;101651.34;5096437;28;20027;-80
2021/01/03 05:52:20;;;;;;;5.82;3.78;;;;;;;17.73;49.40;101647.84;5096061;28;20016;-80
2021/01/03 05:54:47;;;;;;;5.57;4.28;;;;;;;17.70;49.67;101655.66;5091500;28;20051;-78
2021/01/03 05:57:29;;;;;;;7.10;4.47;;;;;;;17.72;49.31;101656.53;5114454;28;20102;-80
2021/01/03 05:59:55;;;;;;;4.90;4.13;;;;;;;17.68;49.36;101652.13;5082500;28;20032;-72
2021/01/03 06:02:25;;;;;;;5.75;4.38;;;;;;;17.69;49.41;101657.38;5108385;28;20462;-72
2021/01/03 06:05:07;;;;;;;4.78;3.50;;;;;;;17.74;49.08;101666.16;5107591;28;20385;-72
2021/01/03 06:07:35;;;;;;;5.80;3.95;;;;;;;17.75;49.19;101667.03;5081109;28;20488;-72
2021/01/03 06:10:01;;;;;;;5.18;4.22;;;;;;;17.70;49.03;101672.22;5086447;28;20024;-72
2021/01/03 06:12:26;;;;;;;5.03;4.03;;;;;;;17.72;48.93;101674.84;5079850;28;20500;-72
2021/01/03 06:14:55;;;;;;;5.47;4.28;;;;;;;17.69;49.35;101674.81;5111517;28;20505;-72
2021/01/03 06:17:44;;;;;;;5.38;3.97;;;;;;;17.66;49.22;101667.81;5091276;28;20049;-72
2021/01/03 06:20:19;;;;;;;5.25;3.67;;;;;;;17.66;49.16;101670.41;5090031;28;20546;-72
2021/01/03 06:22:55;;;;;;;5.32;3.85;;;;;;;17.65;49.53;101665.19;5109642;28;20786;-72
2021/01/03 06:25:32;;;;;;;6.38;4.10;;;;;;;17.68;49.34;101678.28;5107702;28;20031;-72
2021/01/03 06:28:21;;;;;;;6.63;4.68;;;;;;;17.70;49.42;101676.56;5107229;28;20111;-72
2021/01/03 06:31:24;;;;;;;6.25;4.13;;;;;;;17.68;49.44;101680.91;5082724;28;20039;-72
2021/01/03 06:34:08;;;;;;;5.75;4.13;;;;;;;17.69;49.24;101680.03;5082887;28;20386;-72
2021/01/03 06:36:46;;;;;;;7.18;4.10;;;;;;;17.67;49.28;101682.63;5100179;28;20024;-72
2021/01/03 06:39:20;;;;;;;5.90;3.60;;;;;;;17.70;49.07;101681.81;5111402;28;20051;-72
2021/01/03 06:41:50;;;;;;;6.55;4.20;;;;;;;17.69;48.79;101694.00;5100897;28;20073;-73
2021/01/03 06:44:46;;;;;;;7.43;4.40;;;;;;;17.68;49.09;101692.25;5091806;28;20473;-72
2021/01/03 06:47:30;;;;;;;6.13;4.75;;;;;;;17.70;49.14;101697.50;5099165;28;20023;-72
2021/01/03 06:50:35;;;;;;;5.72;4.13;;;;;;;17.64;49.03;101692.22;5091188;28;20114;-72
2021/01/03 06:53:25;;;;;;;4.95;3.70;;;;;;;17.66;49.06;101701.81;5100746;28;20034;-72
2021/01/03 06:56:28;;;;;;;6.03;4.43;;;;;;;17.67;49.03;101705.28;5085333;28;20034;-72
2021/01/03 06:59:02;;;;;;;5.55;4.05;;;;;;;17.68;49.14;101704.44;5110527;28;20059;-72
2021/01/03 07:01:37;;;;;;;6.18;4.55;;;;;;;17.67;49.08;101710.53;5093093;28;20069;-72
2021/01/03 07:04:13;;;;;;;6.47;4.28;;;;;;;17.66;49.18;101711.38;5095109;28;20012;-72
2021/01/03 07:06:40;;;;;;;5.43;3.78;;;;;;;17.63;48.71;101708.72;5113552;28;20024;-78
2021/01/03 07:09:08;;;;;;;6.20;4.55;;;;;;;17.62;49.08;101709.59;5098507;28;20393;-79
2021/01/03 07:11:52;;;;;;;5.05;3.72;;;;;;;17.65;49.17;101718.38;5119084;28;20122;-78
2021/01/03 07:14:21;;;;;;;4.95;4.03;;;;;;;17.64;49.03;101716.63;5101707;28;20103;-79
2021/01/03 07:16:56;;;;;;;5.20;4.43;;;;;;;17.61;48.94;101715.66;5106961;28;20513;-79
2021/01/03 07:19:31;;;;;;;6.10;4.50;;;;;;;17.64;48.86;101723.59;5094598;28;20039;-79
2021/01/03 07:22:15;;;;;;;5.07;3.55;;;;;;;17.61;49.18;101726.13;5112327;28;20032;-79
2021/01/03 07:24:46;;;;;;;7.38;4.72;;;;;;;17.62;48.94;101734.00;5110765;28;20024;-79
2021/01/03 07:27:17;;;;;;;5.80;4.43;;;;;;;17.65;49.15;101728.84;5119053;28;20019;-76
2021/01/03 07:29:57;;;;;;;6.55;4.72;;;;;;;17.67;49.23;101731.44;5111522;28;20012;-77
2021/01/03 07:32:45;;;;;;;7.85;4.72;;;;;;;17.81;49.54;101728.16;5109692;28;20034;-79
2021/01/03 07:35:28;;;;;;;6.35;4.75;;;;;;;17.87;49.09;101735.22;5095187;28;20419;-79
2021/01/03 07:38:14;;;;;;;;;;;;;;;17.89;49.34;101738.72;5119756;28;20474;-77
2021/01/03 07:40:54;;;;;;;8.48;4.88;;;;;;;17.97;48.87;101733.56;5104159;28;19969;-77
2021/01/03 07:43:20;;;;;;;9.48;4.80;;;;;;;18.04;48.97;101741.53;5093313;28;20114;-78
2021/01/03 07:45:47;;;;;;;7.65;4.00;;;;;;;18.06;49.23;101750.25;5118996;28;20111;-77
2021/01/03 07:48:34;;;;;;;5.93;4.35;;;;;;;18.06;49.13;101754.59;5096091;28;20028;-78
2021/01/03 07:51:00;;;;;;;5.40;4.20;;;;;;;18.12;48.90;101749.44;5111065;28;20032;-78
2021/01/03 07:53:34;;;;;;;6.78;4.20;;;;;;;18.17;48.83;101760.88;5104554;28;20040;-77
2021/01/03 07:56:13;;;;;;;5.35;4.28;;;;;;;18.12;48.93;101759.91;5070456;28;20028;-77
2021/01/03 07:58:38;;;;;;;7.00;3.75;;;;;;;18.15;48.78;101762.59;5112264;28;20118;-77
2021/01/03 08:01:04;;;;;;;4.78;3.75;;;;;;;18.18;48.92;101757.34;5091443;28;20119;-77
2021/01/03 08:03:30;;;;;;;5.35;4.30;;;;;;;18.18;48.88;101757.34;5070234;28;20024;-77
2021/01/03 08:06:05;;;;;;;5.20;3.90;;;;;;;18.15;49.23;101767.81;5077315;28;20040;-72
2021/01/03 08:08:31;;;;;;;7.32;4.15;;;;;;;18.25;48.99;101769.66;5106385;28;20102;-72
2021/01/03 08:11:34;;;;;;;6.57;4.28;;;;;;;18.27;48.99;101773.19;5092105;28;20106;-72
2021/01/03 08:14:03;;;;;;;5.38;4.28;;;;;;;18.20;49.12;101779.19;5108836;28;20050;-76
2021/01/03 08:16:30;;;;;;;7.70;5.40;;;;;;;18.23;48.96;101776.63;5096318;28;20024;-77
2021/01/03 08:19:05;;;;;;;5.93;4.55;;;;;;;18.34;49.10;101784.59;5074067;28;20024;-77
2021/01/03 08:21:37;;;;;;;7.88;4.30;;;;;;;18.27;49.00;101788.00;5095737;28;20031;-77
2021/01/03 08:24:16;;;;;;;6.07;4.20;;;;;;;18.28;49.25;101785.41;5111376;28;20347;-77
2021/01/03 08:26:54;;;;;;;5.97;4.28;;;;;;;18.37;49.01;101787.25;5109457;28;20027;-77
2021/01/03 08:29:29;;;;;;;5.70;4.15;;;;;;;18.28;49.02;101788.03;5110781;28;20036;-77
2021/01/03 08:31:59;;;;;;;7.57;4.25;;;;;;;18.26;49.20;101787.13;5118283;28;20028;-77
2021/01/03 08:34:33;;;;;;;5.65;4.70;;;;;;;18.34;49.14;101784.59;5087056;28;20051;-77
2021/01/03 08:36:59;;;;;;;5.32;4.03;;;;;;;18.30;49.19;101786.31;5088972;28;20020;-77
2021/01/03 08:39:28;;;;;;;5.15;3.97;;;;;;;18.26;49.39;101795.00;5096440;28;20104;-77
2021/01/03 08:42:03;;;;;;;6.68;4.47;;;;;;;18.36;49.27;101793.34;5110642;28;20023;-77
2021/01/03 08:44:34;;;;;;;6.05;4.07;;;;;;;18.39;48.76;101796.88;5106588;28;22266;-72
2021/01/03 08:47:03;;;;;;;4.80;3.80;;;;;;;18.33;49.15;101809.00;5105902;28;20019;-72
2021/01/03 08:49:28;;;;;;;6.10;4.00;;;;;;;18.35;49.33;101809.91;5093939;28;20374;-72
2021/01/03 08:52:06;;;;;;;4.80;4.13;;;;;;;18.41;48.79;101803.00;5109578;28;20044;-72
2021/01/03 08:54:32;;;;;;;5.28;4.43;;;;;;;18.39;49.35;101809.09;5087977;28;20118;-72
2021/01/03 08:57:01;;;;;;;4.35;3.70;;;;;;;18.37;49.18;101805.56;5085229;28;20115;-72
2021/01/03 08:59:26;;;;;;;5.35;4.32;;;;;;;18.45;48.92;101806.53;5108233;28;20027;-72
2021/01/03 09:01:52;;;;;;;4.47;3.42;;;;;;;18.40;49.08;101806.50;5091403;28;20106;-72
2021/01/03 09:04:20;;;;;;;6.43;4.13;;;;;;;18.39;49.18;101814.34;5074185;28;20050;-72
2021/01/03 09:06:57;;;;;;;4.50;3.38;;;;;;;18.42;49.13;101815.25;5106893;28;20059;-72
2021/01/03 09:09:26;;;;;;;5.68;4.30;;;;;;;18.50;48.72;101821.44;5088512;28;20027;-72
2021/01/03 09:11:54;;;;;;;5.53;4.32;;;;;;;18.47;48.94;101823.13;5104816;28;20358;-72
2021/01/03 09:14:29;;;;;;;6.30;4.35;;;;;;;18.45;48.73;101819.63;5087092;28;20114;-72
2021/01/03 09:17:21;;;;;;;5.65;3.88;;;;;;;18.39;48.92;101822.19;5086099;28;20032;-72
2021/01/03 09:20:02;;;;;;;6.20;4.30;;;;;;;18.35;48.89;101830.84;5090962;28;20047;-72
2021/01/03 09:22:32;;;;;;;10.77;6.63;;;;;;;18.45;48.99;101840.56;5092565;28;20015;-70
2021/01/03 09:25:15;;;;;;;14.18;6.80;;;;;;;18.48;48.94;101836.25;5099865;28;20027;-72
2021/01/03 09:27:41;;;;;;;11.80;5.85;;;;;;;18.44;49.72;101837.06;5086990;28;20348;-72
2021/01/03 09:30:07;;;;;;;13.15;6.18;;;;;;;18.52;49.28;101837.16;5086091;28;20037;-72
2021/01/03 09:32:32;;;;;;;11.32;6.53;;;;;;;18.50;48.96;101837.16;5110965;28;20392;-72
2021/01/03 09:34:58;;;;;;;12.75;6.82;;;;;;;18.48;49.51;101840.63;5090238;28;20055;-75
2021/01/03 09:37:30;;;;;;;10.88;5.90;;;;;;;18.49;49.16;101847.59;5114727;28;20469;-76
2021/01/03 09:40:26;;;;;;;13.40;6.53;;;;;;;18.52;48.96;101845.03;5112806;28;20055;-76
2021/01/03 09:43:14;;;;;;;12.50;6.63;;;;;;;18.46;49.31;101850.19;5109947;28;20076;-76
2021/01/03 09:45:39;;;;;;;9.73;6.13;;;;;;;18.48;49.54;101846.72;5089051;28;20028;-75
2021/01/03 09:48:05;;;;;;;9.20;6.20;;;;;;;18.51;49.14;101845.88;5106866;28;20542;-75
2021/01/03 09:50:49;;;;;;;10.13;6.10;;;;;;;18.42;49.16;101851.03;5057289;28;20405;-75
2021/01/03 09:53:20;;;;;;;9.30;6.40;;;;;;;18.46;49.32;101858.91;5078884;28;20037;-74
2021/01/03 09:55:54;;;;;;;11.20;6.03;;;;;;;18.52;49.15;101856.38;5083870;28;20067;-75
2021/01/03 09:58:20;;;;;;;12.23;6.05;;;;;;;18.48;49.18;101854.59;5113973;28;20039;-75
2021/01/03 10:00:55;;;;;;;11.80;5.68;;;;;;;18.46;49.26;101853.69;5103070;28;20036;-77
2021/01/03 10:03:20;;;;;;;10.50;5.82;;;;;;;18.53;49.21;101854.66;5084748;28;20478;-77
2021/01/03 10:05:46;;;;;;;10.80;5.70;;;;;;;18.50;49.25;101859.84;5094846;28;20038;-76
2021/01/03 10:08:34;;;;;;;7.88;5.30;;;;;;;18.46;49.22;101858.91;5100488;28;20466;-76
2021/01/03 10:11:00;;;;;;;8.23;5.65;;;;;;;18.54;49.12;101854.66;5105676;28;20081;-76
2021/01/03 10:13:28;;;;;;;10.43;6.10;;;;;;;18.52;48.95;101860.75;5077939;28;20123;-76
2021/01/03 10:15:54;;;;;;;7.85;5.68;;;;;;;18.48;49.11;101864.19;5098949;28;20020;-76
2021/01/03 10:18:35;;;;;;;8.73;5.78;;;;;;;18.52;48.99;101868.59;5088877;28;20153;-75
2021/01/03 10:21:18;;;;;;;7.93;5.40;;;;;;;18.50;49.02;101860.72;5085822;28;20035;-75
2021/01/03 10:23:44;;;;;;;7.40;5.68;;;;;;;18.48;48.93;101857.22;5094836;28;20061;-75
2021/01/03 10:26:20;;;;;;;8.73;6.25;;;;;;;18.52;49.15;101860.75;5073493;28;20028;-76
2021/01/03 10:28:46;;;;;;;6.55;5.07;;;;;;;18.54;48.95;101866.88;5113393;28;20027;-76
2021/01/03 10:31:11;;;;;;;6.80;4.63;;;;;;;18.52;48.95;101866.88;5102110;28;20090;-75
2021/01/03 10:33:37;;;;;;;7.30;4.88;;;;;;;18.53;49.10;101870.38;5093683;28;20015;-76
2021/01/03 10:36:03;;;;;;;8.05;6.00;;;;;;;18.59;48.76;101862.59;5097114;28;20424;-76
2021/01/03 10:38:28;;;;;;;5.90;4.53;;;;;;;18.56;48.91;101866.00;5093649;28;20027;-73
2021/01/03 10:40:54;;;;;;;6.75;4.80;;;;;;;18.58;48.96;101863.44;5073003;28;20036;-72
2021/01/03 10:43:19;;;;;;;7.38;4.15;;;;;;;18.65;48.90;101860.06;5076456;28;20081;-74
2021/01/03 10:45:44;;;;;;;7.03;4.85;;;;;;;18.72;48.74;101856.63;5075469;28;20505;-77
2021/01/03 10:48:12;;;;;;;7.40;4.47;;;;;;;18.75;49.07;101856.66;5095124;28;20388;-77
2021/01/03 10:50:38;;;;;;;5.63;4.82;;;;;;;18.87;48.49;101859.41;5080222;28;20027;-76
2021/01/03 10:53:03;;;;;;;9.18;5.85;;;;;;;18.86;48.66;101859.38;5088348;28;20039;-76
2021/01/03 10:55:28;;;;;;;11.38;5.65;;;;;;;18.76;48.97;101857.53;5081708;28;20493;-76
2021/01/03 10:57:54;;;;;;;6.53;4.40;;;;;;;18.82;48.83;101855.00;5068412;28;20111;-76
2021/01/03 11:00:20;;;;;;;7.97;4.97;;;;;;;18.75;49.16;101856.66;5088507;28;20036;-76
2021/01/03 11:02:46;;;;;;;10.13;4.65;;;;;;;18.67;49.65;101855.72;5109215;28;20035;-76
2021/01/03 11:05:12;;;;;;;10.80;5.65;;;;;;;18.67;49.33;101857.44;5088762;28;20020;-76
2021/01/03 11:07:38;;;;;;;8.35;4.93;;;;;;;18.66;49.31;101851.34;5096716;28;20085;-76
2021/01/03 11:10:05;;;;;;;7.43;5.60;;;;;;;18.65;49.61;101859.16;5059097;28;20054;-76
2021/01/03 11:12:31;;;;;;;8.27;5.15;;;;;;;18.63;49.44;101850.41;5102974;28;20111;-76
2021/01/03 11:14:56;;;;;;;6.78;4.72;;;;;;;18.65;49.48;101839.09;5093536;28;20147;-76
2021/01/03 11:17:21;;;;;;;7.57;4.47;;;;;;;18.61;49.72;101836.41;5085343;28;20039;-76
2021/01/03 11:19:47;;;;;;;6.25;4.78;;;;;;;18.61;49.50;101839.03;5070053;28;20080;-76
2021/01/03 11:22:15;;;;;;;5.85;4.28;;;;;;;18.66;49.45;101843.47;5070441;28;20036;-76
2021/01/03 11:24:42;;;;;;;6.63;4.60;;;;;;;18.68;49.61;101840.88;5101225;28;20103;-76
2021/01/03 11:27:15;;;;;;;5.72;4.40;;;;;;;18.65;49.60;101844.34;5091463;28;20085;-76
2021/01/03 11:29:41;;;;;;;8.05;4.72;;;;;;;18.69;49.37;101845.25;5105596;28;20474;-76
2021/01/03 11:32:11;;;;;;;5.40;4.18;;;;;;;18.68;49.48;101840.88;5088745;28;20032;-76
2021/01/03 11:34:37;;;;;;;6.60;4.63;;;;;;;18.66;49.63;101843.47;5110311;28;20022;-77
2021/01/03 11:37:10;;;;;;;6.20;3.80;;;;;;;18.67;49.69;101847.84;5098063;28;20115;-76
2021/01/03 11:39:37;;;;;;;6.03;4.90;;;;;;;18.68;49.44;101851.34;5100927;28;20133;-72
2021/01/03 11:42:08;;;;;;;6.45;4.50;;;;;;;18.66;49.45;101848.72;5088678;28;20489;-72
2021/01/03 11:44:34;;;;;;;7.68;4.95;;;;;;;18.67;49.43;101846.97;5082862;28;20402;-76